Un Pendik — TCOD2 — position and weather

sailwx.info

Track history (hours):
 
Tides and Currents Weather Stations Pressure Air Temp Water Temp Dewpoint Dewpoint Depression Visibility Wind Speed Wind Dir Waves Ship Positions

Un Pendik

Last reported at 2015-May-24 20:32 UTC. Time now 2015-May-24 21:27 UTC.
Position N 40°43' E 029°28'.

Length 193 m; draft 5.2 m.

Type: Cargo ship. MMSI: 271000792.

Date/timePositionNaut miles runAvg speedWind from/ knotsBaromVisibWave heightAir tempDewpointWater temp
2015-May-24 20:32N 40°43' E 029°28'0 0.0
2015-May-24 19:33N 40°43' E 029°28'0 0.0
2015-May-24 18:31N 40°43' E 029°28'0 0.3
2015-May-24 17:33N 40°43' E 029°28'0 0.0
2015-May-24 16:33N 40°43' E 029°28'4 4.0
2015-May-24 15:33N 40°43' E 029°23'4 3.6
2015-May-24 14:33N 40°44' E 029°18'1 0.8
2015-May-24 13:33N 40°45' E 029°18'6 5.7
2015-May-24 12:33N 40°48' E 029°12'4 4.3
2015-May-24 11:33N 40°51' E 029°16'0 0.0
2015-May-24 10:33N 40°51' E 029°16'0 0.0
2015-May-24 09:33N 40°51' E 029°16'0 0.0
2015-May-24 08:34N 40°51' E 029°16'0 0.0
2015-May-24 07:34N 40°51' E 029°16'0 0.0
2015-May-24 06:33N 40°51' E 029°16'0 0.0
2015-May-24 05:33N 40°51' E 029°16'0 0.0
2015-May-24 04:33N 40°51' E 029°16'0 0.0
2015-May-24 03:33N 40°51' E 029°16'0 0.0
2015-May-24 02:33N 40°51' E 029°16'0 0.0
2015-May-24 01:33N 40°51' E 029°16'0 0.0
2015-May-24 00:34N 40°51' E 029°16'0 0.0
2015-May-23 23:33N 40°51' E 029°16'0 0.0
2015-May-23 22:33N 40°51' E 029°16'0 0.0
2015-May-23 21:33N 40°51' E 029°16'0 0.0
2015-May-23 20:34N 40°51' E 029°16'0 0.0
2015-May-23 19:34N 40°51' E 029°16'0 0.0
2015-May-23 18:33N 40°51' E 029°16'0 0.0
2015-May-23 17:34N 40°51' E 029°16'0 0.0
2015-May-23 16:33N 40°51' E 029°16'0 0.0
2015-May-23 15:33N 40°51' E 029°16'0 0.0
2015-May-23 14:33N 40°51' E 029°16'0 0.0
2015-May-23 13:33N 40°51' E 029°16'0 0.0
2015-May-23 12:33N 40°51' E 029°16'0 0.0
2015-May-23 11:33N 40°51' E 029°16'0 0.0
2015-May-23 10:33N 40°51' E 029°16'0 0.0
2015-May-23 09:34N 40°51' E 029°16'  
2015-May-20 16:23N 37°28' E 024°19'2319.0
2015-May-20 15:11N 37°10' E 024°02'23514.7
2015-May-19 23:10N 38°56' E 019°36'1219.0
2015-May-19 22:33N 39°05' E 019°28'2119.2
2015-May-19 21:29N 39°23' E 019°14'1819.0
2015-May-19 20:33N 39°38' E 019°01'1919.0
2015-May-19 19:31N 39°55' E 018°49'1918.8
2015-May-19 18:29N 40°11' E 018°36'32 0.6
2015-May-17 15:33N 40°38' E 018°13'2419.3
2015-May-17 14:17N 40°18' E 018°30'1519.7
2015-May-17 13:32N 40°05' E 018°40'1919.4
2015-May-17 12:33N 39°49' E 018°54'2219.3
2015-May-17 11:24N 39°30' E 019°09'2019.5
2015-May-17 10:24N 39°14' E 019°23'1819.8
2015-May-17 09:31N 38°59' E 019°35'23117.8
2015-May-16 20:32N 36°28' E 023°15'1512.5
2015-May-16 19:21N 36°40' E 023°25'1519.2
2015-May-16 18:33N 36°53' E 023°35'1919.0
2015-May-16 17:33N 37°09' E 023°48'2219.5
2015-May-16 16:24N 37°28' E 024°03'1919.2
2015-May-16 15:25N 37°44' E 024°16'  
Track history (hours):
 
Tides and Currents Weather Stations Pressure Air Temp Water Temp Dewpoint Dewpoint Depression Visibility Wind Speed Wind Dir Waves Ship Positions

Un Pendik

Last reported at 2015-May-24 20:32 UTC. Time now 2015-May-24 21:27 UTC.
Position N 40°43' E 029°28'.

Length 193 m; draft 5.2 m.

Type: Cargo ship. MMSI: 271000792.

Date/timePositionNaut miles runAvg speedWind from/ knotsBaromVisibWave heightAir tempDewpointWater temp
2015-May-24 20:32N 40°43' E 029°28'0 0.0
2015-May-24 19:33N 40°43' E 029°28'0 0.0
2015-May-24 18:31N 40°43' E 029°28'0 0.3
2015-May-24 17:33N 40°43' E 029°28'0 0.0
2015-May-24 16:33N 40°43' E 029°28'4 4.0
2015-May-24 15:33N 40°43' E 029°23'4 3.6
2015-May-24 14:33N 40°44' E 029°18'1 0.8
2015-May-24 13:33N 40°45' E 029°18'6 5.7
2015-May-24 12:33N 40°48' E 029°12'4 4.3
2015-May-24 11:33N 40°51' E 029°16'0 0.0
2015-May-24 10:33N 40°51' E 029°16'0 0.0
2015-May-24 09:33N 40°51' E 029°16'0 0.0
2015-May-24 08:34N 40°51' E 029°16'0 0.0
2015-May-24 07:34N 40°51' E 029°16'0 0.0
2015-May-24 06:33N 40°51' E 029°16'0 0.0
2015-May-24 05:33N 40°51' E 029°16'0 0.0
2015-May-24 04:33N 40°51' E 029°16'0 0.0
2015-May-24 03:33N 40°51' E 029°16'0 0.0
2015-May-24 02:33N 40°51' E 029°16'0 0.0
2015-May-24 01:33N 40°51' E 029°16'0 0.0
2015-May-24 00:34N 40°51' E 029°16'0 0.0
2015-May-23 23:33N 40°51' E 029°16'0 0.0
2015-May-23 22:33N 40°51' E 029°16'0 0.0
2015-May-23 21:33N 40°51' E 029°16'0 0.0
2015-May-23 20:34N 40°51' E 029°16'0 0.0
2015-May-23 19:34N 40°51' E 029°16'0 0.0
2015-May-23 18:33N 40°51' E 029°16'0 0.0
2015-May-23 17:34N 40°51' E 029°16'0 0.0
2015-May-23 16:33N 40°51' E 029°16'0 0.0
2015-May-23 15:33N 40°51' E 029°16'0 0.0
2015-May-23 14:33N 40°51' E 029°16'0 0.0
2015-May-23 13:33N 40°51' E 029°16'0 0.0
2015-May-23 12:33N 40°51' E 029°16'0 0.0
2015-May-23 11:33N 40°51' E 029°16'0 0.0
2015-May-23 10:33N 40°51' E 029°16'0 0.0
2015-May-23 09:34N 40°51' E 029°16'  
2015-May-20 16:23N 37°28' E 024°19'2319.0
2015-May-20 15:11N 37°10' E 024°02'23514.7
2015-May-19 23:10N 38°56' E 019°36'1219.0
2015-May-19 22:33N 39°05' E 019°28'2119.2
2015-May-19 21:29N 39°23' E 019°14'1819.0
2015-May-19 20:33N 39°38' E 019°01'1919.0
2015-May-19 19:31N 39°55' E 018°49'1918.8
2015-May-19 18:29N 40°11' E 018°36'32 0.6
2015-May-17 15:33N 40°38' E 018°13'2419.3
2015-May-17 14:17N 40°18' E 018°30'1519.7
2015-May-17 13:32N 40°05' E 018°40'1919.4
2015-May-17 12:33N 39°49' E 018°54'2219.3
2015-May-17 11:24N 39°30' E 019°09'2019.5
2015-May-17 10:24N 39°14' E 019°23'1819.8
2015-May-17 09:31N 38°59' E 019°35'23117.8
2015-May-16 20:32N 36°28' E 023°15'1512.5
2015-May-16 19:21N 36°40' E 023°25'1519.2
2015-May-16 18:33N 36°53' E 023°35'1919.0
2015-May-16 17:33N 37°09' E 023°48'2219.5
2015-May-16 16:24N 37°28' E 024°03'1919.2
2015-May-16 15:25N 37°44' E 024°16'  

Dump ship's entire track history